Time;durP1;ratioP1;P1;durP2;ratioP2;P2;SDS_P1;SDS_P2;PMS_P1;PMS_P2;Temp;Humidity;BMP_temperature;BMP_pressure;BME280_temperature;BME280_humidity;BME280_pressure;Samples;Min_cycle;Max_cycle;Signal;HPM_P1;HPM_P2
2023/10/15 00:01:32;;;;;;;5.45;1.02;;;;;;;-144.73;100.00;54592.44;4936739;28;20081;-72
2023/10/15 00:03:58;;;;;;;7.75;0.95;;;;;;;-144.73;100.00;54539.06;4936519;28;20046;-72
2023/10/15 00:06:23;;;;;;;4.57;1.20;;;;;;;-144.73;100.00;54547.28;4935156;28;20031;-72
2023/10/15 00:08:50;;;;;;;5.32;1.00;;;;;;;-144.73;100.00;54612.97;4930903;29;20034;-73
2023/10/15 00:11:18;;;;;;;8.60;2.50;;;;;;;-144.73;100.00;54588.31;4947265;28;20328;-73
2023/10/15 00:13:44;;;;;;;11.48;1.80;;;;;;;-144.73;100.00;54592.44;4962712;28;20031;-75
2023/10/15 00:16:19;;;;;;;4.53;1.20;;;;;;;-144.73;100.00;54629.38;4964696;28;20118;-73
2023/10/15 00:18:44;;;;;;;6.85;1.58;;;;;;;-144.73;100.00;54592.44;4964141;28;20020;-73
2023/10/15 00:21:13;;;;;;;11.80;1.67;;;;;;;-144.73;100.00;54576.00;4931844;28;20035;-74
2023/10/15 00:23:43;;;;;;;7.35;2.05;;;;;;;-144.73;100.00;54584.22;4965881;28;20022;-74
2023/10/15 00:26:12;;;;;;;10.82;1.70;;;;;;;-144.73;100.00;54604.75;4929512;29;20051;-75
2023/10/15 00:28:44;;;;;;;14.65;1.92;;;;;;;-144.73;100.00;54604.75;4968091;28;20027;-72
2023/10/15 00:31:13;;;;;;;9.50;1.42;;;;;;;-144.73;100.00;54588.31;4935841;28;20111;-71
2023/10/15 00:33:43;;;;;;;10.00;1.92;;;;;;;-144.73;100.00;54580.13;4995500;28;20031;-72
2023/10/15 00:36:13;;;;;;;15.93;2.20;;;;;;;-144.73;100.00;54576.00;4941805;28;20031;-71
2023/10/15 00:38:46;;;;;;;17.23;2.25;;;;;;;-144.73;100.00;54600.63;4952475;29;20038;-72
2023/10/15 00:41:14;;;;;;;11.93;2.13;;;;;;;-144.73;100.00;54584.22;4935741;29;20059;-72
2023/10/15 00:43:54;;;;;;;17.38;2.45;;;;;;;-144.73;100.00;54600.63;4936061;29;20038;-72
2023/10/15 00:46:24;;;;;;;12.23;1.92;;;;;;;-144.73;100.00;54633.47;4935539;28;20035;-72
2023/10/15 00:48:50;;;;;;;27.48;3.15;;;;;;;-144.73;100.00;54604.75;4951660;28;20035;-72
2023/10/15 00:51:20;;;;;;;17.33;2.70;;;;;;;-144.73;100.00;54600.63;4940008;28;20055;-73
2023/10/15 00:53:54;;;;;;;14.77;1.75;;;;;;;-144.73;100.00;54617.06;4936316;28;20039;-72
2023/10/15 00:56:26;;;;;;;15.88;3.13;;;;;;;-144.73;100.00;54569.84;4935521;28;20035;-71
2023/10/15 01:03:59;;;;;;;13.93;2.00;;;;;;;-144.73;100.00;54617.06;4952365;28;20038;-73
2023/10/15 01:06:35;;;;;;;13.70;2.17;;;;;;;-144.73;100.00;54571.91;4986323;28;20122;-71
2023/10/15 01:09:18;;;;;;;18.45;2.67;;;;;;;-144.73;100.00;54559.59;4935978;28;20038;-71
2023/10/15 01:11:56;;;;;;;15.30;2.00;;;;;;;-144.73;100.00;54580.13;4951628;29;20078;-72
2023/10/15 01:14:27;;;;;;;12.73;2.15;;;;;;;-144.73;100.00;54617.06;4950892;28;20031;-72
2023/10/15 01:16:53;;;;;;;;;;;;;;;-144.73;100.00;54588.31;4917636;28;20032;-71
2023/10/15 01:19:31;;;;;;;12.00;2.38;;;;;;;-144.73;100.00;54551.38;5012745;28;19977;-72
2023/10/15 01:21:57;;;;;;;17.15;2.58;;;;;;;-144.73;100.00;54571.91;4953819;28;20050;-72
2023/10/15 01:24:27;;;;;;;19.17;2.08;;;;;;;-144.73;100.00;54604.75;4938266;28;20043;-72
2023/10/15 01:26:59;;;;;;;16.92;2.40;;;;;;;-144.73;100.00;54651.97;4955393;28;20046;-72
2023/10/15 01:29:28;;;;;;;11.80;1.90;;;;;;;-144.73;100.00;54617.06;4936375;28;20089;-72
2023/10/15 01:32:10;;;;;;;26.55;2.75;;;;;;;-144.73;100.00;54563.69;4952808;28;20031;-71
2023/10/15 01:34:45;;;;;;;14.02;2.40;;;;;;;-144.73;100.00;54576.00;4936647;28;20062;-71
2023/10/15 01:37:15;;;;;;;10.00;1.33;;;;;;;-144.73;100.00;54567.81;4936450;28;20038;-70
2023/10/15 01:39:46;;;;;;;10.30;1.25;;;;;;;-144.73;100.00;54592.44;4951990;28;20047;-70
2023/10/15 01:42:31;;;;;;;5.25;1.10;;;;;;;-144.73;100.00;54592.44;4935349;28;20019;-71
2023/10/15 01:47:44;;;;;;;14.55;1.23;;;;;;;-144.73;100.00;54559.59;4950157;28;20066;-72
2023/10/15 01:50:14;;;;;;;3.53;1.30;;;;;;;-144.73;100.00;54608.84;4927668;28;20031;-73
2023/10/15 01:52:41;;;;;;;5.85;1.17;;;;;;;-144.73;100.00;54584.22;4929004;28;20023;-73
2023/10/15 01:55:07;;;;;;;7.63;1.08;;;;;;;-144.73;100.00;54576.00;4928441;28;20062;-73
2023/10/15 01:57:36;;;;;;;4.50;1.13;;;;;;;-144.73;100.00;54608.84;4933128;28;20023;-73
2023/10/15 02:00:13;;;;;;;9.35;1.42;;;;;;;-144.73;100.00;54592.44;4937846;28;20039;-73
2023/10/15 02:02:42;;;;;;;7.55;1.30;;;;;;;-144.73;100.00;54590.38;4933555;28;20107;-73
2023/10/15 02:07:53;;;;;;;12.07;3.33;;;;;;;-144.73;100.00;54580.13;4956294;28;20101;-73
2023/10/15 02:10:19;;;;;;;14.65;2.22;;;;;;;-144.73;100.00;54573.97;4936415;28;20058;-74
2023/10/15 02:12:51;;;;;;;8.18;1.75;;;;;;;-144.73;100.00;54576.00;4938179;28;20028;-73
2023/10/15 02:15:22;;;;;;;14.10;1.90;;;;;;;-144.73;100.00;54592.44;4972637;28;20038;-72
2023/10/15 02:17:51;;;;;;;10.27;1.25;;;;;;;-144.73;100.00;54592.44;4930132;28;20023;-73
2023/10/15 02:20:26;;;;;;;7.47;1.83;;;;;;;-144.73;100.00;54563.69;4936282;28;20054;-74
2023/10/15 02:22:53;;;;;;;14.23;3.25;;;;;;;-144.73;100.00;54592.44;4933446;28;20026;-73
2023/10/15 02:25:26;;;;;;;11.00;1.83;;;;;;;-144.73;100.00;54584.22;4937165;28;20035;-74
2023/10/15 02:27:51;;;;;;;12.50;1.88;;;;;;;-144.73;100.00;54608.84;4936414;28;20043;-74
2023/10/15 02:30:17;;;;;;;10.88;1.65;;;;;;;-144.73;100.00;54629.38;4931053;29;20062;-74
2023/10/15 02:32:43;;;;;;;16.65;1.67;;;;;;;-144.73;100.00;54612.97;4965519;28;20235;-73
2023/10/15 02:35:13;;;;;;;6.63;1.40;;;;;;;-144.73;100.00;54567.81;4957466;28;20043;-73
2023/10/15 02:37:40;;;;;;;7.97;1.67;;;;;;;-144.73;100.00;54617.06;4938534;28;20054;-73
2023/10/15 02:40:16;;;;;;;6.57;0.80;;;;;;;-144.73;100.00;54600.63;4952628;28;20039;-72
2023/10/15 02:42:50;;;;;;;8.07;2.10;;;;;;;-144.73;100.00;54584.22;4937168;28;20019;-73
2023/10/15 02:45:23;;;;;;;7.57;1.15;;;;;;;-144.73;100.00;54629.38;5004581;28;20063;-72
2023/10/15 02:47:49;;;;;;;5.75;1.65;;;;;;;-144.73;100.00;54571.91;4942415;29;20032;-73
2023/10/15 02:50:26;;;;;;;6.63;1.20;;;;;;;-144.73;100.00;54571.91;4936358;28;20632;-73
2023/10/15 02:52:54;;;;;;;8.88;1.92;;;;;;;-144.73;100.00;54567.81;4950632;28;20026;-73
2023/10/15 02:55:26;;;;;;;10.55;2.03;;;;;;;-144.73;100.00;54625.28;4954396;28;20078;-73
2023/10/15 02:57:52;;;;;;;10.48;1.83;;;;;;;-144.73;100.00;54590.38;4948045;28;20023;-73
2023/10/15 03:00:18;;;;;;;11.93;2.13;;;;;;;-144.73;100.00;54615.00;4956559;28;20078;-73
2023/10/15 03:02:45;;;;;;;13.15;1.63;;;;;;;-144.73;100.00;54612.97;4926060;28;20051;-73
2023/10/15 03:05:18;;;;;;;10.45;1.35;;;;;;;-144.73;100.00;54588.31;4937134;28;20035;-72
2023/10/15 03:07:44;;;;;;;5.93;1.30;;;;;;;-144.73;100.00;54600.63;4937256;29;20042;-72
2023/10/15 03:10:21;;;;;;;9.20;1.38;;;;;;;-144.73;100.00;54600.63;4936639;28;20047;-72
2023/10/15 03:12:48;;;;;;;8.73;1.83;;;;;;;-144.73;100.00;54621.16;5031691;28;20544;-72
2023/10/15 03:15:14;;;;;;;15.45;1.85;;;;;;;-144.73;100.00;54598.59;5004907;28;20074;-72
2023/10/15 03:17:46;;;;;;;10.45;1.63;;;;;;;-144.73;100.00;54567.81;4937020;28;20054;-72
2023/10/15 03:22:45;;;;;;;9.30;1.83;;;;;;;-144.73;100.00;54580.13;4945063;28;20023;-72
2023/10/15 03:25:13;;;;;;;14.45;1.83;;;;;;;-144.73;100.00;54604.75;4935973;29;20088;-72
2023/10/15 03:27:51;;;;;;;11.73;1.60;;;;;;;-144.73;100.00;54571.91;4952843;28;20126;-72
2023/10/15 03:30:22;;;;;;;6.45;1.40;;;;;;;-144.73;100.00;54610.91;4936147;28;20044;-73
2023/10/15 03:32:47;;;;;;;4.53;1.52;;;;;;;-144.73;100.00;54580.13;4936176;28;20024;-73
2023/10/15 03:35:27;;;;;;;6.50;1.30;;;;;;;-144.73;100.00;54629.38;4941083;28;20042;-73
2023/10/15 03:38:04;;;;;;;4.38;1.13;;;;;;;-144.73;100.00;54588.31;4945580;28;20174;-73
2023/10/15 03:40:30;;;;;;;9.38;1.35;;;;;;;-144.73;100.00;54608.84;4946502;28;20493;-73
2023/10/15 03:43:45;;;;;;;7.38;1.17;;;;;;;-144.73;100.00;54621.16;4945197;28;20523;-73
2023/10/15 03:45:51;;;;;;;9.32;1.50;;;;;;;-144.73;100.00;54592.44;4956321;28;20520;-71
2023/10/15 03:48:21;;;;;;;5.25;1.17;;;;;;;-144.73;100.00;54567.81;4938441;28;20035;-72
2023/10/15 03:50:55;;;;;;;12.65;2.00;;;;;;;-144.73;100.00;54633.47;4937737;28;20133;-72
2023/10/15 03:53:30;;;;;;;18.70;1.95;;;;;;;-144.73;100.00;54606.78;4939158;28;20024;-72
2023/10/15 03:55:57;;;;;;;13.00;1.77;;;;;;;-144.73;100.00;54662.22;4937291;28;20035;-72
2023/10/15 03:58:23;;;;;;;13.70;2.28;;;;;;;-144.73;100.00;54559.59;4936762;28;20066;-72
2023/10/15 04:00:55;;;;;;;17.73;2.38;;;;;;;-144.73;100.00;54604.75;4936187;29;20028;-72
2023/10/15 04:03:28;;;;;;;17.10;2.47;;;;;;;-144.73;100.00;54604.75;4937026;28;20026;-72
2023/10/15 04:06:01;;;;;;;11.30;2.47;;;;;;;-144.73;100.00;54571.91;4936333;28;20043;-73
2023/10/15 04:08:27;;;;;;;15.40;2.60;;;;;;;-144.73;100.00;54604.75;4952277;28;20142;-72
2023/10/15 04:10:57;;;;;;;10.57;2.35;;;;;;;-144.73;100.00;54588.31;4936056;28;20490;-72
2023/10/15 04:13:23;;;;;;;11.80;2.55;;;;;;;-144.73;100.00;54600.63;4931783;28;20043;-72
2023/10/15 04:15:49;;;;;;;20.85;3.17;;;;;;;-144.73;100.00;54621.16;4948618;28;20056;-73
2023/10/15 04:18:15;;;;;;;9.38;1.98;;;;;;;-144.73;100.00;54621.16;4944345;28;20036;-73
2023/10/15 04:20:43;;;;;;;8.55;1.50;;;;;;;-144.73;100.00;54604.75;4954251;28;20050;-73
2023/10/15 04:23:13;;;;;;;7.80;1.40;;;;;;;-144.73;100.00;54584.22;4951045;28;20027;-73
2023/10/15 04:25:39;;;;;;;8.05;1.40;;;;;;;-144.73;100.00;54596.53;4928878;28;20114;-74
2023/10/15 04:28:15;;;;;;;6.45;1.27;;;;;;;-144.73;100.00;54571.91;4930773;28;20035;-74
2023/10/15 04:30:40;;;;;;;6.65;1.58;;;;;;;-144.73;100.00;54619.13;4950964;28;20055;-75
2023/10/15 04:33:13;;;;;;;8.23;1.80;;;;;;;-144.73;100.00;54608.84;4933069;28;20059;-75
2023/10/15 04:35:40;;;;;;;11.27;1.52;;;;;;;-144.73;100.00;54621.16;4928007;28;20074;-77
2023/10/15 04:38:09;;;;;;;8.30;1.40;;;;;;;-144.73;100.00;54563.69;4951421;28;20070;-76
2023/10/15 04:41:00;;;;;;;13.15;2.00;;;;;;;-144.73;100.00;54621.16;4947772;28;20043;-75
2023/10/15 04:43:26;;;;;;;7.35;1.88;;;;;;;-144.73;100.00;54559.59;4933691;28;20031;-73
2023/10/15 04:46:02;;;;;;;11.30;1.90;;;;;;;-144.73;100.00;54580.13;4936172;28;20122;-73
2023/10/15 04:48:30;;;;;;;8.95;1.88;;;;;;;-144.73;100.00;54612.97;4936812;28;20074;-73
2023/10/15 04:51:13;;;;;;;10.43;1.92;;;;;;;-144.73;100.00;54588.31;4933468;28;20054;-72
2023/10/15 04:53:48;;;;;;;11.57;1.40;;;;;;;-144.73;100.00;54621.16;4917424;28;20116;-72
2023/10/15 04:56:14;;;;;;;8.57;1.60;;;;;;;-144.73;100.00;54641.69;4933664;28;20056;-73
2023/10/15 04:58:40;;;;;;;5.68;1.75;;;;;;;-144.73;100.00;54621.16;4917586;28;20035;-73
2023/10/15 05:01:07;;;;;;;13.70;1.55;;;;;;;-144.73;100.00;54608.84;4932080;28;20036;-74
2023/10/15 05:03:33;;;;;;;10.73;1.50;;;;;;;-144.73;100.00;54555.47;4952701;28;20012;-73
2023/10/15 05:06:02;;;;;;;6.57;1.70;;;;;;;-144.73;100.00;54598.59;4967097;28;20057;-74
2023/10/15 05:08:29;;;;;;;6.53;1.63;;;;;;;-144.73;100.00;54625.28;4949367;28;20031;-74
2023/10/15 05:10:54;;;;;;;11.38;1.80;;;;;;;-144.73;100.00;54606.78;4951393;28;20046;-74
2023/10/15 05:13:20;;;;;;;9.23;1.83;;;;;;;-144.73;100.00;54617.06;4962170;28;20027;-74
2023/10/15 05:15:49;;;;;;;8.70;1.45;;;;;;;-144.73;100.00;54615.00;4952406;28;20035;-73
2023/10/15 05:18:15;;;;;;;9.00;1.48;;;;;;;-144.73;100.00;54637.59;4954012;28;20085;-72
2023/10/15 05:20:43;;;;;;;12.80;1.42;;;;;;;-144.73;100.00;54604.75;4974598;28;20117;-72
2023/10/15 05:23:09;;;;;;;6.93;1.40;;;;;;;-144.73;100.00;54590.38;4958937;28;20157;-72
2023/10/15 05:25:35;;;;;;;9.27;1.63;;;;;;;-144.73;100.00;54555.47;4953088;29;20039;-72
2023/10/15 05:28:00;;;;;;;13.27;1.73;;;;;;;-144.73;100.00;54606.78;4935880;28;20027;-72
2023/10/15 05:30:28;;;;;;;5.07;1.52;;;;;;;-144.73;100.00;54625.28;4950884;28;20031;-73
2023/10/15 05:32:54;;;;;;;5.05;1.40;;;;;;;-144.73;100.00;54612.97;4974613;28;20031;-74
2023/10/15 05:35:19;;;;;;;6.80;1.70;;;;;;;-144.73;100.00;54592.44;4929613;28;20035;-74
2023/10/15 05:37:45;;;;;;;4.75;2.10;;;;;;;-144.73;100.00;54617.06;4935290;28;20041;-74
2023/10/15 05:40:15;;;;;;;6.90;1.30;;;;;;;-144.73;100.00;54617.06;4949724;28;20032;-74
2023/10/15 05:42:41;;;;;;;5.88;1.42;;;;;;;-144.73;100.00;54641.69;4930403;28;20020;-74
2023/10/15 05:45:07;;;;;;;3.78;1.25;;;;;;;-144.73;100.00;54576.00;4953137;28;20031;-75
2023/10/15 05:47:36;;;;;;;6.25;1.30;;;;;;;-144.73;100.00;54631.44;4950201;28;20019;-75
2023/10/15 05:50:05;;;;;;;6.50;1.50;;;;;;;-144.73;100.00;54639.63;4949977;28;20028;-75
2023/10/15 05:52:31;;;;;;;9.10;1.73;;;;;;;-144.73;100.00;54645.78;4954738;29;20081;-75
2023/10/15 05:54:57;;;;;;;8.55;1.40;;;;;;;-144.73;100.00;54627.31;4953782;28;20051;-76
2023/10/15 05:57:22;;;;;;;7.10;1.50;;;;;;;-144.73;100.00;54598.59;4935861;28;20027;-75
2023/10/15 05:59:48;;;;;;;4.93;1.45;;;;;;;-144.73;100.00;54608.84;4929957;28;20047;-75
2023/10/15 06:02:14;;;;;;;7.25;1.58;;;;;;;-144.73;100.00;54637.59;4935842;28;20047;-76
2023/10/15 06:04:39;;;;;;;10.63;1.75;;;;;;;-144.73;100.00;54606.78;4942191;28;20059;-76
2023/10/15 06:07:05;;;;;;;15.38;1.90;;;;;;;-144.73;100.00;54619.13;4935355;28;20034;-76
2023/10/15 06:09:31;;;;;;;5.78;1.45;;;;;;;-144.73;100.00;54612.97;4934098;29;20529;-76
2023/10/15 06:11:57;;;;;;;8.95;1.67;;;;;;;-144.73;100.00;54621.16;4935478;28;20027;-77
2023/10/15 06:14:23;;;;;;;9.23;2.28;;;;;;;-144.73;100.00;54588.31;5028260;28;20035;-77
2023/10/15 06:16:52;;;;;;;6.95;1.55;;;;;;;-144.73;100.00;54590.38;4935873;28;20031;-77
2023/10/15 06:19:21;;;;;;;8.23;1.70;;;;;;;-144.73;100.00;54592.44;4944089;28;20023;-77
2023/10/15 06:21:46;;;;;;;16.95;1.67;;;;;;;-144.73;100.00;54604.75;4952861;28;20027;-78
2023/10/15 06:24:12;;;;;;;6.28;1.52;;;;;;;-144.73;100.00;54592.44;4962984;28;20024;-77
2023/10/15 06:26:37;;;;;;;11.02;1.77;;;;;;;-144.73;100.00;54576.00;4926489;28;20052;-78
2023/10/15 06:29:03;;;;;;;9.15;1.73;;;;;;;-144.73;100.00;54629.38;5007500;28;20026;-78
2023/10/15 06:31:30;;;;;;;6.78;1.42;;;;;;;-144.73;100.00;54617.06;4954234;28;20043;-78
2023/10/15 06:33:56;;;;;;;12.43;1.80;;;;;;;-144.73;100.00;54600.63;4941927;28;20035;-78
2023/10/15 06:36:21;;;;;;;8.90;1.60;;;;;;;-144.73;100.00;54588.31;4940799;28;20039;-78
2023/10/15 06:38:49;;;;;;;10.60;1.70;;;;;;;-144.73;100.00;54584.22;4932161;28;20031;-77
2023/10/15 06:41:14;;;;;;;12.07;3.58;;;;;;;-144.73;100.00;54621.16;4933383;28;20052;-75
2023/10/15 06:43:40;;;;;;;10.10;1.58;;;;;;;-144.73;100.00;54682.75;4933844;28;20073;-74
2023/10/15 06:46:07;;;;;;;6.88;1.58;;;;;;;-144.73;100.00;54608.84;4929034;28;20097;-73
2023/10/15 06:48:33;;;;;;;8.00;1.52;;;;;;;-144.73;100.00;54608.84;4936902;28;20106;-75
2023/10/15 06:51:02;;;;;;;11.70;1.80;;;;;;;-144.73;100.00;54633.47;4932873;29;20032;-75
2023/10/15 06:53:28;;;;;;;5.45;1.67;;;;;;;-144.73;100.00;54645.78;4928389;28;20028;-75
2023/10/15 06:55:53;;;;;;;7.95;1.85;;;;;;;-144.73;100.00;54576.00;4951022;28;20032;-76
2023/10/15 06:58:18;;;;;;;8.25;1.20;;;;;;;-144.73;100.00;54645.78;4935854;28;20019;-75
2023/10/15 07:00:45;;;;;;;4.47;1.23;;;;;;;-144.73;100.00;54592.44;4949575;28;20036;-75
2023/10/15 07:03:10;;;;;;;3.67;1.10;;;;;;;-144.73;100.00;54604.75;4937462;28;20044;-75
2023/10/15 07:05:36;;;;;;;5.22;1.00;;;;;;;-144.73;100.00;54654.00;4952923;28;20035;-75
2023/10/15 07:08:01;;;;;;;9.98;1.23;;;;;;;-144.73;100.00;54580.13;4929384;28;20082;-76
2023/10/15 07:10:27;;;;;;;4.65;1.17;;;;;;;-144.73;100.00;54592.44;4932298;28;20510;-76
2023/10/15 07:12:54;;;;;;;15.82;1.77;;;;;;;-144.73;100.00;54559.59;4926521;28;20029;-76
2023/10/15 07:15:20;;;;;;;8.63;1.30;;;;;;;-144.73;100.00;54637.59;4951906;28;20032;-77
2023/10/15 07:17:46;;;;;;;12.50;1.70;;;;;;;-144.73;100.00;54621.16;4929700;28;20019;-77
2023/10/15 07:20:17;;;;;;;11.73;2.03;;;;;;;-144.73;100.00;54592.44;4934108;28;20027;-77
2023/10/15 07:22:49;;;;;;;13.27;1.45;;;;;;;-144.73;100.00;54580.13;4941232;28;20019;-79
2023/10/15 07:25:18;;;;;;;7.20;1.75;;;;;;;-144.73;100.00;54608.84;4939487;28;20035;-78
2023/10/15 07:27:48;;;;;;;8.15;1.63;;;;;;;-144.73;100.00;54633.47;4936452;28;20026;-77
2023/10/15 07:30:15;;;;;;;8.52;1.67;;;;;;;-144.73;100.00;54592.44;4936604;28;20084;-76
2023/10/15 07:32:42;;;;;;;8.65;1.92;;;;;;;-144.73;100.00;54596.53;4952515;28;20030;-75
2023/10/15 07:35:12;;;;;;;3.17;1.05;;;;;;;-144.73;100.00;54600.63;4934900;28;20032;-75
2023/10/15 07:37:41;;;;;;;17.55;2.53;;;;;;;-144.73;100.00;54617.06;4933027;28;20393;-75
2023/10/15 07:40:16;;;;;;;8.38;1.88;;;;;;;-144.73;100.00;54612.97;4927722;28;20040;-75
2023/10/15 07:42:48;;;;;;;10.40;1.98;;;;;;;-144.73;100.00;54576.00;4930828;28;20020;-76
2023/10/15 07:45:14;;;;;;;5.82;1.55;;;;;;;-144.73;100.00;54608.84;4931204;28;20085;-76
2023/10/15 07:47:40;;;;;;;8.77;1.65;;;;;;;-144.73;100.00;54586.28;4952454;28;20027;-76
2023/10/15 07:50:08;;;;;;;6.15;1.75;;;;;;;-144.73;100.00;54596.53;4928253;28;20035;-77
2023/10/15 07:52:34;;;;;;;10.60;1.63;;;;;;;-144.73;100.00;54584.22;4954656;28;20034;-77
2023/10/15 07:55:00;;;;;;;6.35;1.60;;;;;;;-144.73;100.00;54629.38;4950637;28;20039;-77
2023/10/15 07:57:26;;;;;;;7.22;1.60;;;;;;;-144.73;100.00;54571.91;4952481;28;20019;-77
2023/10/15 07:59:54;;;;;;;9.35;1.75;;;;;;;-144.73;100.00;54604.75;4941656;28;20053;-79
2023/10/15 08:02:21;;;;;;;5.47;1.42;;;;;;;-144.73;100.00;54633.47;4941169;28;20099;-78
2023/10/15 08:04:47;;;;;;;12.60;1.90;;;;;;;-144.73;100.00;54617.06;4955201;28;20042;-78
2023/10/15 08:07:13;;;;;;;11.75;2.13;;;;;;;-144.73;100.00;54596.53;4941577;28;20462;-78
2023/10/15 08:09:38;;;;;;;13.70;1.67;;;;;;;-144.73;100.00;54596.53;4955379;28;20042;-77
2023/10/15 08:12:04;;;;;;;7.18;1.45;;;;;;;-144.73;100.00;54592.44;4954276;28;20032;-75
2023/10/15 08:14:30;;;;;;;15.10;2.25;;;;;;;-144.73;100.00;54647.84;4935983;29;20062;-75
2023/10/15 08:16:55;;;;;;;10.05;2.05;;;;;;;-144.73;100.00;54580.13;4936555;29;20027;-74
2023/10/15 08:19:20;;;;;;;6.85;1.60;;;;;;;-144.73;100.00;54563.69;4935564;28;20031;-73
2023/10/15 08:21:46;;;;;;;8.40;2.13;;;;;;;-144.73;100.00;54592.44;4936299;28;20031;-73
2023/10/15 08:24:14;;;;;;;6.40;1.95;;;;;;;-144.73;100.00;54621.16;4935871;28;20035;-73
2023/10/15 08:26:41;;;;;;;9.15;2.10;;;;;;;-144.73;100.00;54600.63;4935986;29;20031;-73
2023/10/15 08:29:09;;;;;;;9.98;1.58;;;;;;;-144.73;100.00;54588.31;4951698;28;20127;-74
2023/10/15 08:31:35;;;;;;;5.38;1.40;;;;;;;-144.73;100.00;54592.44;4952040;29;20031;-76
2023/10/15 08:34:01;;;;;;;6.20;1.60;;;;;;;-144.73;100.00;54596.53;4953137;28;20023;-76
2023/10/15 08:36:26;;;;;;;7.82;1.52;;;;;;;-144.73;100.00;54584.22;4936157;28;20113;-77
2023/10/15 08:38:52;;;;;;;4.15;1.42;;;;;;;-144.73;100.00;54592.44;4937077;29;20023;-78
2023/10/15 08:41:21;;;;;;;5.95;1.20;;;;;;;-144.73;100.00;54612.97;4954024;28;20253;-79
2023/10/15 08:43:50;;;;;;;5.15;1.20;;;;;;;-144.73;100.00;54617.06;4934430;28;20064;-68
2023/10/15 08:46:21;;;;;;;6.65;0.90;;;;;;;-144.73;100.00;54615.00;4930924;29;20035;-69
2023/10/15 08:48:48;;;;;;;5.85;1.15;;;;;;;-144.73;100.00;54621.16;4951747;28;20023;-70
2023/10/15 08:51:20;;;;;;;5.20;0.90;;;;;;;-144.73;100.00;54621.16;4951490;28;20106;-70
2023/10/15 08:53:47;;;;;;;4.72;1.63;;;;;;;-144.73;100.00;54563.69;4981196;28;20027;-70
2023/10/15 08:56:14;;;;;;;4.07;1.05;;;;;;;-144.73;100.00;54625.28;4950599;28;20034;-69
2023/10/15 08:58:40;;;;;;;6.15;1.20;;;;;;;-144.73;100.00;54617.06;5027382;28;20061;-69
2023/10/15 09:01:05;;;;;;;9.30;1.30;;;;;;;-144.73;100.00;54625.28;4934419;29;20043;-67
2023/10/15 09:03:31;;;;;;;8.30;1.90;;;;;;;-144.73;100.00;54615.00;4948505;29;20110;-68
2023/10/15 09:05:57;;;;;;;6.93;1.17;;;;;;;-144.73;100.00;54621.16;4949564;28;20033;-69
2023/10/15 09:08:23;;;;;;;1.60;1.17;;;;;;;-144.73;100.00;54580.13;4932521;28;20600;-69
2023/10/15 09:10:52;;;;;;;4.80;1.20;;;;;;;-144.73;100.00;54604.75;4947272;28;20039;-71
2023/10/15 09:13:19;;;;;;;8.38;2.33;;;;;;;-144.73;100.00;54612.97;4952325;28;20023;-71
2023/10/15 09:15:47;;;;;;;4.78;1.58;;;;;;;-144.73;100.00;54625.28;4945237;28;20027;-71
2023/10/15 09:18:15;;;;;;;2.28;0.90;;;;;;;-144.73;100.00;54617.06;4949887;28;20055;-70
2023/10/15 09:20:44;;;;;;;6.65;1.52;;;;;;;-144.73;100.00;54621.16;4929731;28;20105;-70
2023/10/15 09:23:10;;;;;;;7.15;1.45;;;;;;;-144.73;100.00;54588.31;4953535;28;20015;-70
2023/10/15 09:25:35;;;;;;;5.43;1.40;;;;;;;-144.73;100.00;54559.59;4930098;29;20039;-71
2023/10/15 09:28:01;;;;;;;5.85;1.30;;;;;;;-144.73;100.00;54592.44;4949831;28;20027;-71
2023/10/15 09:30:30;;;;;;;6.28;1.50;;;;;;;-144.73;100.00;54612.97;4929005;28;20027;-70
2023/10/15 09:32:56;;;;;;;3.88;1.20;;;;;;;-144.73;100.00;54658.13;4926276;28;20024;-69
2023/10/15 09:35:23;;;;;;;10.15;1.67;;;;;;;-144.73;100.00;54571.91;4948722;28;20074;-69
2023/10/15 09:37:49;;;;;;;7.65;1.35;;;;;;;-144.73;100.00;54576.00;4936276;28;20055;-71
2023/10/15 09:40:19;;;;;;;8.90;1.83;;;;;;;-144.73;100.00;54608.84;4947698;28;20071;-70
2023/10/15 09:42:49;;;;;;;6.60;1.38;;;;;;;-144.73;100.00;54637.59;4950944;28;20023;-70
2023/10/15 09:45:18;;;;;;;2.50;1.20;;;;;;;-144.73;100.00;54610.91;4948103;28;20066;-70
2023/10/15 09:47:48;;;;;;;6.93;1.15;;;;;;;-144.73;100.00;54645.78;4941409;28;20058;-71
2023/10/15 09:50:19;;;;;;;4.95;1.17;;;;;;;-144.73;100.00;54596.53;4948120;28;20039;-71
2023/10/15 09:52:55;;;;;;;5.55;1.35;;;;;;;-144.73;100.00;54617.06;5016843;28;20028;-71
2023/10/15 09:55:26;;;;;;;5.53;1.02;;;;;;;-144.73;100.00;54600.63;4951896;28;20035;-71
2023/10/15 09:57:57;;;;;;;9.80;1.60;;;;;;;-144.73;100.00;54629.38;4934257;28;20058;-70
2023/10/15 10:00:46;;;;;;;6.50;1.58;;;;;;;-144.73;100.00;54584.22;4930273;28;20039;-69
2023/10/15 10:03:59;;;;;;;7.07;1.40;;;;;;;-144.73;100.00;54645.78;4963799;28;20114;-69
2023/10/15 10:06:55;;;;;;;9.52;1.40;;;;;;;-144.73;100.00;54576.00;4948928;28;20086;-67
2023/10/15 10:09:51;;;;;;;15.60;2.22;;;;;;;-144.73;100.00;54600.63;4934431;28;20110;-69
2023/10/15 10:12:58;;;;;;;7.90;2.22;;;;;;;-144.73;100.00;54612.97;4932551;28;20035;-71
2023/10/15 10:15:42;;;;;;;4.63;1.77;;;;;;;-144.73;100.00;54596.53;4903997;28;20038;-71
2023/10/15 10:18:08;;;;;;;7.63;2.00;;;;;;;-144.73;100.00;54633.47;4889863;28;20052;-70
2023/10/15 10:20:38;;;;;;;8.80;1.88;;;;;;;-144.73;100.00;54641.69;4928749;28;20035;-70
2023/10/15 10:23:06;;;;;;;10.32;1.77;;;;;;;-144.73;100.00;54596.53;4947527;28;20027;-70
2023/10/15 10:25:38;;;;;;;7.95;1.50;;;;;;;-144.73;100.00;54612.97;4932964;28;20039;-70
2023/10/15 10:28:14;;;;;;;8.73;1.40;;;;;;;-144.73;100.00;54588.31;4955462;28;20122;-70
2023/10/15 10:30:52;;;;;;;17.67;2.53;;;;;;;-144.73;100.00;54547.28;4949346;28;20101;-71
2023/10/15 10:33:46;;;;;;;5.40;1.25;;;;;;;-144.73;100.00;54612.97;4938351;28;20038;-71
2023/10/15 10:36:19;;;;;;;10.35;2.33;;;;;;;-144.73;100.00;54588.31;4952039;28;20062;-71
2023/10/15 10:39:00;;;;;;;6.85;1.95;;;;;;;-144.73;100.00;54592.44;5023041;28;20019;-69
2023/10/15 10:42:04;;;;;;;6.80;1.77;;;;;;;-144.73;100.00;54584.22;5022174;28;20027;-70
2023/10/15 10:44:30;;;;;;;10.63;1.33;;;;;;;-144.73;100.00;54608.84;4952919;28;20027;-69
2023/10/15 10:46:58;;;;;;;10.93;2.15;;;;;;;-144.73;100.00;54629.38;4943245;28;20054;-69
2023/10/15 10:49:39;;;;;;;10.27;1.52;;;;;;;-144.73;100.00;54641.69;4944070;28;20046;-69
2023/10/15 10:52:14;;;;;;;11.60;2.38;;;;;;;-144.73;100.00;54580.13;4999637;28;20035;-69
2023/10/15 10:54:39;;;;;;;7.45;1.85;;;;;;;-144.73;100.00;54608.84;4939140;28;20039;-69
2023/10/15 10:57:09;;;;;;;9.20;1.80;;;;;;;-144.73;100.00;54571.91;4935483;28;20028;-67
2023/10/15 10:59:41;;;;;;;8.30;2.22;;;;;;;-144.73;100.00;54590.38;4941333;28;20037;-67
2023/10/15 11:02:11;;;;;;;9.88;1.70;;;;;;;-144.73;100.00;54567.81;4954376;29;20098;-67
2023/10/15 11:04:38;;;;;;;7.30;1.80;;;;;;;-144.73;100.00;54617.06;4935510;28;20085;-68
2023/10/15 11:07:07;;;;;;;9.38;1.80;;;;;;;-144.73;100.00;54612.97;4942905;28;20031;-69
2023/10/15 11:09:38;;;;;;;9.18;1.88;;;;;;;-144.73;100.00;54598.59;4952864;28;20070;-67
2023/10/15 11:12:06;;;;;;;7.80;1.85;;;;;;;-144.73;100.00;54596.53;4964660;28;20047;-68
2023/10/15 11:14:32;;;;;;;6.78;1.75;;;;;;;-144.73;100.00;54604.75;4962654;28;20025;-67
2023/10/15 11:16:58;;;;;;;14.73;2.00;;;;;;;-144.73;100.00;54629.38;4935660;28;20035;-68
2023/10/15 11:19:34;;;;;;;20.00;2.75;;;;;;;-144.73;100.00;54582.16;4938744;28;20043;-69
2023/10/15 11:22:00;;;;;;;8.02;1.92;;;;;;;-144.73;100.00;54604.75;4951443;28;20110;-68
2023/10/15 11:24:29;;;;;;;9.98;1.83;;;;;;;-144.73;100.00;54606.78;4934397;28;20114;-68
2023/10/15 11:26:55;;;;;;;13.20;2.47;;;;;;;-144.73;100.00;54637.59;4952187;28;20047;-68
2023/10/15 11:29:24;;;;;;;8.57;2.05;;;;;;;-144.73;100.00;54606.78;4935699;28;20405;-68
2023/10/15 11:31:56;;;;;;;8.95;2.33;;;;;;;-144.73;100.00;54584.22;4950997;28;20019;-69